Time;durP1;ratioP1;P1;durP2;ratioP2;P2;SDS_P1;SDS_P2;PMS_P1;PMS_P2;Temp;Humidity;BMP_temperature;BMP_pressure;BME280_temperature;BME280_humidity;BME280_pressure;Samples;Min_cycle;Max_cycle;Signal;HPM_P1;HPM_P2
2023/07/13 02:02:13;;;;;;;8.98;3.60;;;;;;;;;;4373304;28;20221;-79
2023/07/13 02:04:42;;;;;;;5.43;3.67;;;;;;;;;;4262665;33;20058;-80
2023/07/13 02:07:08;;;;;;;4.20;3.08;;;;;;;;;;4224669;33;20093;-79
2023/07/13 02:09:35;;;;;;;9.70;4.03;;;;;;;;;;4247900;33;20109;-85
2023/07/13 02:12:01;;;;;;;9.10;4.72;;;;;;;;;;4225975;33;20073;-80
2023/07/13 02:14:31;;;;;;;12.93;3.87;;;;;;;;;;4221599;34;20055;-81
2023/07/13 02:16:58;;;;;;;14.65;4.32;;;;;;;;;;4222608;33;20050;-80
2023/07/13 02:19:24;;;;;;;12.40;3.78;;;;;;;;;;4233683;33;20119;-81
2023/07/13 02:21:51;;;;;;;8.52;3.90;;;;;;;;;;4222692;33;20068;-79
2023/07/13 02:24:20;;;;;;;7.55;3.92;;;;;;;;;;4234704;33;20092;-79
2023/07/13 02:26:47;;;;;;;10.00;4.57;;;;;;;;;;4206976;34;20104;-80
2023/07/13 02:29:14;;;;;;;9.35;3.83;;;;;;;;;;4192963;34;20039;-79
2023/07/13 02:31:40;;;;;;;4.55;3.47;;;;;;;;;;4175650;34;20069;-79
2023/07/13 02:34:08;;;;;;;9.48;3.55;;;;;;;;;;4152381;34;20083;-80
2023/07/13 02:36:37;;;;;;;10.40;4.32;;;;;;;;;;4138945;34;20123;-80
2023/07/13 02:39:05;;;;;;;7.55;4.40;;;;;;;;;;4127715;34;20049;-79
2023/07/13 02:41:35;;;;;;;5.55;3.87;;;;;;;;;;4110603;34;20046;-84
2023/07/13 02:44:04;;;;;;;10.38;4.18;;;;;;;;;;4114355;34;20076;-79
2023/07/13 02:46:31;;;;;;;7.15;3.90;;;;;;;;;;4101762;34;20437;-80
2023/07/13 02:48:59;;;;;;;11.77;4.07;;;;;;;;;;4113721;34;20394;-79
2023/07/13 02:51:25;;;;;;;10.60;3.53;;;;;;;;;;4094205;34;20049;-80
2023/07/13 02:53:52;;;;;;;8.23;4.00;;;;;;;;;;4098432;35;20045;-79
2023/07/13 02:56:22;;;;;;;7.82;3.95;;;;;;;;;;4078722;35;21032;-80
2023/07/13 02:58:51;;;;;;;12.45;4.82;;;;;;;;;;4087271;34;20060;-81
2023/07/13 03:01:20;;;;;;;9.98;4.53;;;;;;;;;;4119126;34;20067;-80
2023/07/13 03:03:52;;;;;;;7.55;4.10;;;;;;;;;;4101283;35;20108;-80
2023/07/13 03:06:19;;;;;;;8.07;4.45;;;;;;;;;;4108634;34;20053;-79
2023/07/13 03:08:48;;;;;;;9.68;4.70;;;;;;;;;;4160130;34;20074;-80
2023/07/13 03:11:19;;;;;;;9.13;4.65;;;;;;;;;;4169027;34;20036;-82
2023/07/13 03:13:48;;;;;;;7.72;5.35;;;;;;;;;;4153039;34;20068;-79
2023/07/13 03:16:18;;;;;;;13.80;4.15;;;;;;;;;;4163104;34;20187;-78
2023/07/13 03:18:53;;;;;;;13.27;4.47;;;;;;;;;;4145793;34;20447;-79
2023/07/13 03:21:21;;;;;;;9.90;4.70;;;;;;;;;;4142602;34;20037;-80
2023/07/13 03:23:47;;;;;;;7.72;4.25;;;;;;;;;;4102640;34;20100;-80
2023/07/13 03:26:19;;;;;;;12.32;4.53;;;;;;;;;;4122823;34;20036;-78
2023/07/13 03:28:49;;;;;;;10.65;4.60;;;;;;;;;;4130773;34;20101;-79
2023/07/13 03:31:20;;;;;;;10.65;5.25;;;;;;;;;;4129483;34;20407;-79
2023/07/13 03:33:48;;;;;;;14.02;4.62;;;;;;;;;;4141413;34;20089;-79
2023/07/13 03:36:20;;;;;;;10.27;5.18;;;;;;;;;;4117968;34;20049;-78
2023/07/13 03:38:52;;;;;;;6.03;4.50;;;;;;;;;;4115032;34;20053;-77
2023/07/13 03:41:19;;;;;;;7.30;4.72;;;;;;;;;;4107416;34;20453;-79
2023/07/13 03:43:49;;;;;;;28.00;5.05;;;;;;;;;;4128700;34;20453;-79
2023/07/13 03:46:17;;;;;;;9.88;4.55;;;;;;;;;;4127638;34;20042;-79
2023/07/13 03:48:46;;;;;;;6.50;4.47;;;;;;;;;;4127670;34;20045;-78
2023/07/13 03:51:15;;;;;;;11.05;4.43;;;;;;;;;;4155108;34;20477;-78
2023/07/13 03:53:44;;;;;;;5.53;4.32;;;;;;;;;;4170523;34;20445;-79
2023/07/13 03:56:11;;;;;;;14.05;4.85;;;;;;;;;;4163005;34;20130;-79
2023/07/13 03:58:39;;;;;;;8.30;5.03;;;;;;;;;;4127935;34;20698;-83
2023/07/13 04:01:08;;;;;;;13.62;4.95;;;;;;;;;;4140186;34;20092;-80
2023/07/13 04:03:36;;;;;;;15.70;4.70;;;;;;;;;;4152169;34;20084;-79
2023/07/13 04:06:05;;;;;;;8.88;4.93;;;;;;;;;;4141867;34;20038;-79
2023/07/13 04:08:33;;;;;;;14.35;5.65;;;;;;;;;;4150776;34;20044;-83
2023/07/13 04:11:03;;;;;;;8.48;5.37;;;;;;;;;;4134694;34;20098;-77
2023/07/13 04:13:29;;;;;;;7.62;5.15;;;;;;;;;;4150367;34;20398;-80
2023/07/13 04:15:56;;;;;;;12.70;5.97;;;;;;;;;;4164497;34;20077;-80
2023/07/13 04:18:24;;;;;;;16.95;5.78;;;;;;;;;;4139803;34;20459;-80
2023/07/13 04:20:54;;;;;;;11.20;5.12;;;;;;;;;;4149095;34;20082;-80
2023/07/13 04:23:24;;;;;;;11.12;5.20;;;;;;;;;;4147479;34;21041;-82
2023/07/13 04:25:53;;;;;;;13.93;4.93;;;;;;;;;;4153500;34;20040;-81
2023/07/13 04:28:23;;;;;;;9.93;4.43;;;;;;;;;;4126108;34;20082;-81
2023/07/13 04:30:50;;;;;;;12.80;5.37;;;;;;;;;;4132420;34;20068;-83
2023/07/13 04:33:23;;;;;;;9.15;5.32;;;;;;;;;;4127846;34;20056;-80
2023/07/13 04:35:56;;;;;;;11.70;5.28;;;;;;;;;;4138404;34;20029;-78
2023/07/13 04:38:27;;;;;;;12.88;4.97;;;;;;;;;;4126370;34;20472;-79
2023/07/13 04:40:58;;;;;;;14.38;4.85;;;;;;;;;;4121670;34;20046;-78
2023/07/13 04:43:25;;;;;;;7.43;4.95;;;;;;;;;;4104434;34;20057;-80
2023/07/13 04:45:52;;;;;;;14.77;4.93;;;;;;;;;;4143828;34;20875;-80
2023/07/13 04:48:19;;;;;;;5.62;4.32;;;;;;;;;;4170179;34;20048;-84
2023/07/13 04:50:46;;;;;;;8.15;5.10;;;;;;;;;;4179875;34;20411;-86
2023/07/13 04:53:15;;;;;;;15.75;5.07;;;;;;;;;;4167210;34;20931;-81
2023/07/13 04:55:43;;;;;;;15.30;5.07;;;;;;;;;;4153860;34;20037;-81
2023/07/13 04:58:10;;;;;;;6.75;4.82;;;;;;;;;;4125622;34;20240;-83
2023/07/13 05:00:36;;;;;;;13.82;6.10;;;;;;;;;;4122823;34;20057;-83
2023/07/13 05:03:03;;;;;;;14.10;5.72;;;;;;;;;;4114768;34;20065;-83
2023/07/13 05:05:29;;;;;;;16.17;5.72;;;;;;;;;;4139584;34;20062;-82
2023/07/13 05:07:56;;;;;;;17.30;5.53;;;;;;;;;;4117088;34;20138;-85
2023/07/13 05:10:22;;;;;;;9.77;5.15;;;;;;;;;;4102134;34;20046;-84
2023/07/13 05:12:49;;;;;;;12.10;5.78;;;;;;;;;;4122992;34;20057;-86
2023/07/13 05:15:15;;;;;;;16.02;5.40;;;;;;;;;;4141979;34;20033;-82
2023/07/13 05:17:42;;;;;;;12.95;5.28;;;;;;;;;;4152667;34;20044;-82
2023/07/13 05:20:08;;;;;;;12.45;5.55;;;;;;;;;;4151740;34;20045;-83
2023/07/13 05:22:35;;;;;;;11.57;5.55;;;;;;;;;;4142341;34;20358;-83
2023/07/13 05:25:03;;;;;;;16.33;5.93;;;;;;;;;;4162231;34;20195;-91
2023/07/13 05:27:29;;;;;;;6.85;5.43;;;;;;;;;;4160309;34;20070;-85
2023/07/13 05:29:55;;;;;;;17.67;5.20;;;;;;;;;;4182094;34;20066;-85
2023/07/13 05:32:24;;;;;;;10.05;5.65;;;;;;;;;;4180685;34;20047;-86
2023/07/13 05:34:50;;;;;;;10.48;6.03;;;;;;;;;;4198680;34;20063;-84
2023/07/13 05:37:16;;;;;;;13.48;5.07;;;;;;;;;;4207951;34;20047;-84
2023/07/13 05:39:42;;;;;;;9.10;5.35;;;;;;;;;;4195791;34;20089;-84
2023/07/13 05:42:15;;;;;;;5.20;4.70;;;;;;;;;;4196095;34;20065;-85
2023/07/13 05:44:41;;;;;;;9.25;5.00;;;;;;;;;;4195924;34;20066;-86
2023/07/13 05:47:07;;;;;;;14.38;5.47;;;;;;;;;;4165891;34;20537;-89
2023/07/13 05:49:34;;;;;;;7.30;5.45;;;;;;;;;;4168328;34;20077;-86
2023/07/13 05:52:01;;;;;;;10.27;5.32;;;;;;;;;;4159413;34;20474;-86
2023/07/13 05:54:29;;;;;;;10.10;5.28;;;;;;;;;;4158787;34;20307;-85
2023/07/13 05:56:57;;;;;;;15.10;8.55;;;;;;;;;;4164883;34;20539;-85
2023/07/13 05:59:23;;;;;;;6.15;5.28;;;;;;;;;;4193762;34;20066;-89
2023/07/13 06:01:52;;;;;;;7.60;5.30;;;;;;;;;;4192152;34;20055;-85
2023/07/13 06:04:19;;;;;;;6.72;4.80;;;;;;;;;;4194038;34;20036;-85
2023/07/13 06:06:46;;;;;;;11.27;6.20;;;;;;;;;;4183141;34;20082;-82
2023/07/13 06:09:12;;;;;;;8.98;5.12;;;;;;;;;;4186398;34;20065;-78
2023/07/13 06:11:38;;;;;;;10.38;5.30;;;;;;;;;;4202025;33;20064;-79
2023/07/13 06:14:04;;;;;;;14.93;5.70;;;;;;;;;;4210349;33;20456;-82
2023/07/13 06:16:31;;;;;;;6.75;4.85;;;;;;;;;;4212816;33;20389;-80
2023/07/13 06:18:57;;;;;;;8.52;4.97;;;;;;;;;;4200082;34;20043;-80
2023/07/13 06:21:24;;;;;;;8.57;5.35;;;;;;;;;;4187652;34;20065;-80
2023/07/13 06:23:52;;;;;;;6.80;4.85;;;;;;;;;;4187480;34;20087;-81
2023/07/13 06:26:20;;;;;;;9.98;5.43;;;;;;;;;;4165969;34;20056;-80
2023/07/13 06:28:46;;;;;;;7.00;4.93;;;;;;;;;;4162339;34;20062;-79
2023/07/13 06:31:13;;;;;;;8.55;5.12;;;;;;;;;;4162925;34;20764;-85
2023/07/13 06:33:39;;;;;;;9.57;5.28;;;;;;;;;;4158898;34;20415;-79
2023/07/13 06:36:07;;;;;;;5.45;4.62;;;;;;;;;;4161369;34;20056;-79
2023/07/13 06:38:34;;;;;;;9.45;5.20;;;;;;;;;;4160830;34;20117;-81
2023/07/13 06:41:00;;;;;;;8.35;5.57;;;;;;;;;;4164283;34;20060;-80
2023/07/13 06:43:28;;;;;;;15.70;9.95;;;;;;;;;;4163360;34;20048;-83
2023/07/13 06:45:55;;;;;;;6.32;4.80;;;;;;;;;;4164470;34;20056;-78
2023/07/13 06:48:21;;;;;;;9.18;5.45;;;;;;;;;;4146055;34;20056;-79
2023/07/13 06:50:49;;;;;;;9.68;5.55;;;;;;;;;;4152226;34;20118;-82
2023/07/13 06:53:15;;;;;;;9.82;4.75;;;;;;;;;;4172685;34;20386;-79
2023/07/13 06:55:43;;;;;;;4.95;4.45;;;;;;;;;;4127767;34;20083;-83
2023/07/13 06:58:16;;;;;;;10.52;5.30;;;;;;;;;;4135983;34;20041;-83
2023/07/13 07:00:43;;;;;;;12.07;5.53;;;;;;;;;;4118906;34;20079;-80
2023/07/13 07:03:09;;;;;;;11.20;4.12;;;;;;;;;;4138495;34;20062;-78
2023/07/13 07:05:36;;;;;;;7.10;4.97;;;;;;;;;;4116370;34;20435;-86
2023/07/13 07:08:03;;;;;;;7.20;5.37;;;;;;;;;;4137029;34;20045;-80
2023/07/13 07:10:31;;;;;;;5.37;4.12;;;;;;;;;;4147632;34;20133;-85
2023/07/13 07:12:57;;;;;;;8.32;5.32;;;;;;;;;;4154051;34;20063;-77
2023/07/13 07:15:23;;;;;;;10.82;5.45;;;;;;;;;;4143723;34;20048;-79
2023/07/13 07:17:49;;;;;;;7.22;5.37;;;;;;;;;;4147147;34;20105;-83
2023/07/13 07:20:15;;;;;;;11.50;4.78;;;;;;;;;;4151395;34;20070;-83
2023/07/13 07:22:48;;;;;;;9.15;5.70;;;;;;;;;;4148439;34;20113;-80
2023/07/13 07:25:14;;;;;;;15.15;5.68;;;;;;;;;;4156877;34;20059;-80
2023/07/13 07:27:40;;;;;;;9.20;5.20;;;;;;;;;;4201078;34;20430;-79
2023/07/13 07:30:07;;;;;;;7.15;4.43;;;;;;;;;;4208792;34;20047;-79
2023/07/13 07:32:33;;;;;;;10.07;4.20;;;;;;;;;;4206417;34;20047;-79
2023/07/13 07:34:59;;;;;;;6.55;4.07;;;;;;;;;;4244041;33;20185;-80
2023/07/13 07:37:26;;;;;;;5.05;3.90;;;;;;;;;;4251146;33;20045;-78
2023/07/13 07:39:52;;;;;;;8.45;3.78;;;;;;;;;;4248732;33;20060;-84
2023/07/13 07:42:18;;;;;;;6.10;3.15;;;;;;;;;;4259685;33;20085;-79
2023/07/13 07:44:44;;;;;;;4.03;3.25;;;;;;;;;;4260892;33;20065;-80
2023/07/13 07:47:10;;;;;;;4.05;3.22;;;;;;;;;;4265957;33;20132;-78
2023/07/13 07:49:37;;;;;;;4.78;3.00;;;;;;;;;;4259285;33;20056;-82
2023/07/13 07:52:04;;;;;;;6.03;3.70;;;;;;;;;;4249844;33;20439;-77
2023/07/13 07:54:30;;;;;;;19.98;3.80;;;;;;;;;;4246420;33;20503;-78
2023/07/13 07:56:56;;;;;;;3.47;2.85;;;;;;;;;;4249482;33;20100;-78
2023/07/13 07:59:23;;;;;;;3.15;2.95;;;;;;;;;;4252707;33;20437;-77
2023/07/13 08:01:50;;;;;;;5.72;3.22;;;;;;;;;;4250069;33;20486;-85
2023/07/13 08:04:17;;;;;;;3.03;2.83;;;;;;;;;;4250484;33;20046;-78
2023/07/13 08:06:43;;;;;;;5.87;3.40;;;;;;;;;;4250548;33;20442;-78
2023/07/13 08:09:09;;;;;;;3.35;2.65;;;;;;;;;;4229665;33;20100;-80
2023/07/13 08:11:35;;;;;;;6.10;3.20;;;;;;;;;;4232133;33;20047;-80
2023/07/13 08:14:02;;;;;;;6.32;3.40;;;;;;;;;;4230420;33;20070;-85
2023/07/13 08:16:27;;;;;;;5.37;3.50;;;;;;;;;;4232352;33;20550;-82
2023/07/13 08:18:54;;;;;;;12.48;5.80;;;;;;;;;;4198178;34;20115;-79
2023/07/13 08:21:21;;;;;;;18.12;5.72;;;;;;;;;;4200383;34;20047;-82
2023/07/13 08:23:47;;;;;;;14.70;6.37;;;;;;;;;;4178113;34;20073;-78
2023/07/13 08:26:14;;;;;;;38.17;7.40;;;;;;;;;;4182783;34;20085;-78
2023/07/13 08:28:41;;;;;;;9.13;7.32;;;;;;;;;;4183221;34;20433;-84
2023/07/13 08:31:07;;;;;;;11.15;7.40;;;;;;;;;;4224612;33;20039;-80
2023/07/13 08:33:35;;;;;;;11.85;6.87;;;;;;;;;;4223928;33;20109;-81
2023/07/13 08:36:01;;;;;;;20.42;6.90;;;;;;;;;;4222229;33;20052;-81
2023/07/13 08:38:27;;;;;;;12.60;6.60;;;;;;;;;;4209633;34;20059;-85
2023/07/13 08:40:55;;;;;;;11.85;5.82;;;;;;;;;;4225430;33;20498;-82
2023/07/13 08:43:29;;;;;;;10.00;6.40;;;;;;;;;;4231815;33;20050;-86
2023/07/13 08:46:09;;;;;;;11.88;4.78;;;;;;;;;;4227925;33;20369;-78
2023/07/13 08:48:38;;;;;;;7.07;4.90;;;;;;;;;;4223835;33;20076;-81
2023/07/13 08:51:10;;;;;;;14.38;5.07;;;;;;;;;;4231598;33;20076;-83
2023/07/13 08:53:40;;;;;;;11.85;4.55;;;;;;;;;;4216603;34;20084;-82
2023/07/13 08:56:11;;;;;;;11.02;4.80;;;;;;;;;;4218569;34;20056;-87
2023/07/13 08:58:38;;;;;;;6.50;4.47;;;;;;;;;;4218961;34;20513;-82
2023/07/13 09:01:18;;;;;;;11.20;4.80;;;;;;;;;;4222969;34;20063;-84
2023/07/13 09:03:56;;;;;;;9.52;4.68;;;;;;;;;;4192871;34;20068;-84
2023/07/13 09:06:26;;;;;;;8.55;4.90;;;;;;;;;;4193763;34;20097;-83
2023/07/13 09:08:59;;;;;;;12.63;5.15;;;;;;;;;;4172644;34;20065;-83
2023/07/13 09:11:35;;;;;;;6.95;4.03;;;;;;;;;;4194847;34;20036;-82
2023/07/13 09:14:04;;;;;;;16.40;5.15;;;;;;;;;;4198920;34;20081;-82
2023/07/13 09:16:30;;;;;;;6.37;4.15;;;;;;;;;;4203948;34;20052;-81
2023/07/13 09:18:59;;;;;;;9.23;5.15;;;;;;;;;;4208147;34;20059;-81
2023/07/13 09:21:29;;;;;;;12.70;4.07;;;;;;;;;;4204748;34;20103;-83
2023/07/13 09:24:18;;;;;;;13.77;4.03;;;;;;;;;;4208599;33;20039;-82
2023/07/13 09:26:45;;;;;;;3.90;3.45;;;;;;;;;;4209380;33;20504;-87
2023/07/13 09:29:14;;;;;;;19.40;3.97;;;;;;;;;;4227165;33;20058;-84
2023/07/13 09:31:46;;;;;;;7.53;3.92;;;;;;;;;;4213484;33;20051;-85
2023/07/13 09:34:14;;;;;;;6.50;3.55;;;;;;;;;;4212910;34;20051;-85
2023/07/13 09:36:40;;;;;;;6.60;3.95;;;;;;;;;;4206255;34;20526;-83
2023/07/13 09:39:25;;;;;;;8.45;4.22;;;;;;;;;;4189534;34;20065;-86
2023/07/13 09:41:55;;;;;;;8.35;4.07;;;;;;;;;;4162402;34;20070;-82
2023/07/13 09:44:30;;;;;;;6.45;3.80;;;;;;;;;;4155405;34;20044;-80
2023/07/13 09:46:57;;;;;;;3.90;3.50;;;;;;;;;;4164804;34;20138;-82
2023/07/13 09:49:27;;;;;;;8.30;3.80;;;;;;;;;;4174677;34;20068;-81
2023/07/13 09:52:04;;;;;;;7.25;3.67;;;;;;;;;;4179321;34;20418;-83
2023/07/13 09:54:32;;;;;;;5.07;4.00;;;;;;;;;;4173268;34;20055;-82
2023/07/13 09:56:59;;;;;;;5.55;3.58;;;;;;;;;;4177525;34;20150;-82
2023/07/13 09:59:32;;;;;;;3.65;3.20;;;;;;;;;;4179009;34;20079;-82
2023/07/13 10:01:59;;;;;;;7.10;3.58;;;;;;;;;;4177806;34;20092;-81
2023/07/13 10:04:28;;;;;;;4.32;3.05;;;;;;;;;;4177684;34;20105;-80
2023/07/13 10:07:04;;;;;;;10.57;3.10;;;;;;;;;;4165880;34;20191;-79
2023/07/13 10:09:38;;;;;;;3.65;3.03;;;;;;;;;;4185825;34;20466;-81
2023/07/13 10:12:13;;;;;;;12.43;3.80;;;;;;;;;;4198243;33;20074;-86
2023/07/13 10:14:41;;;;;;;7.60;3.85;;;;;;;;;;4240308;33;20054;-82
2023/07/13 10:17:12;;;;;;;4.60;2.83;;;;;;;;;;4217309;33;20104;-82
2023/07/13 10:19:39;;;;;;;3.33;3.03;;;;;;;;;;4211064;33;20162;-81
2023/07/13 10:22:11;;;;;;;4.25;3.37;;;;;;;;;;4194962;34;20047;-80
2023/07/13 10:24:39;;;;;;;3.72;3.17;;;;;;;;;;4176426;34;20051;-82
2023/07/13 10:27:15;;;;;;;8.45;3.08;;;;;;;;;;4173708;34;20055;-83
2023/07/13 10:29:46;;;;;;;5.65;3.30;;;;;;;;;;4148967;34;20066;-81
2023/07/13 10:32:13;;;;;;;5.75;4.40;;;;;;;;;;4152718;34;20070;-83
2023/07/13 10:34:44;;;;;;;4.20;3.35;;;;;;;;;;4156990;34;20858;-80
2023/07/13 10:37:33;;;;;;;10.05;3.45;;;;;;;;;;4150157;34;20045;-81
2023/07/13 10:40:00;;;;;;;4.05;3.15;;;;;;;;;;4165613;34;20074;-79
2023/07/13 10:42:36;;;;;;;4.70;3.28;;;;;;;;;;4156871;34;20074;-82
2023/07/13 10:45:20;;;;;;;4.45;3.22;;;;;;;;;;4160796;34;20420;-82
2023/07/13 10:47:52;;;;;;;5.35;3.42;;;;;;;;;;4155854;34;20064;-82
2023/07/13 10:50:20;;;;;;;10.35;4.10;;;;;;;;;;4168254;34;20361;-82
2023/07/13 10:52:48;;;;;;;10.50;3.92;;;;;;;;;;4176334;34;20197;-83
2023/07/13 10:55:33;;;;;;;9.95;4.05;;;;;;;;;;4191343;34;20480;-83
2023/07/13 10:58:00;;;;;;;3.75;3.35;;;;;;;;;;4202891;34;20063;-82
2023/07/13 11:03:21;;;;;;;8.23;3.60;;;;;;;;;;4172678;34;20438;-82
2023/07/13 11:05:48;;;;;;;6.18;3.30;;;;;;;;;;4155382;34;20133;-82
2023/07/13 11:08:17;;;;;;;5.37;3.40;;;;;;;;;;4156787;34;20078;-83
2023/07/13 11:10:49;;;;;;;6.22;3.42;;;;;;;;;;4145262;34;20044;-82
2023/07/13 11:13:15;;;;;;;;;;;;;;;;;;4147356;34;20057;-82
2023/07/13 11:15:47;;;;;;;6.80;3.87;;;;;;;;;;4127503;34;19954;-83
2023/07/13 11:18:25;;;;;;;4.93;3.83;;;;;;;;;;4129513;34;20068;-82
2023/07/13 11:21:12;;;;;;;5.18;3.30;;;;;;;;;;4131828;34;20052;-80
2023/07/13 11:23:41;;;;;;;5.43;4.12;;;;;;;;;;4148225;34;20068;-82
2023/07/13 11:26:27;;;;;;;5.35;3.75;;;;;;;;;;4138635;34;20413;-82
2023/07/13 11:28:53;;;;;;;3.72;3.10;;;;;;;;;;4116501;34;20501;-86
2023/07/13 11:31:22;;;;;;;6.57;3.58;;;;;;;;;;4137359;34;20090;-81
2023/07/13 11:33:53;;;;;;;10.00;3.37;;;;;;;;;;4138340;34;20118;-85
2023/07/13 11:36:22;;;;;;;9.18;3.67;;;;;;;;;;4150493;34;20048;-80
2023/07/13 11:39:00;;;;;;;7.75;3.42;;;;;;;;;;4159783;34;20088;-87
2023/07/13 11:41:29;;;;;;;3.47;3.10;;;;;;;;;;4155030;34;20078;-83
2023/07/13 11:44:04;;;;;;;4.37;3.97;;;;;;;;;;4155654;34;20040;-84
2023/07/13 11:46:31;;;;;;;3.50;3.20;;;;;;;;;;4143339;34;20045;-78
2023/07/13 11:48:57;;;;;;;5.45;3.30;;;;;;;;;;4135774;34;20116;-78
2023/07/13 11:51:26;;;;;;;11.12;5.80;;;;;;;;;;4141667;34;20464;-80
2023/07/13 11:53:53;;;;;;;15.88;4.45;;;;;;;;;;4125822;34;20500;-80
2023/07/13 11:56:19;;;;;;;7.50;3.90;;;;;;;;;;4113929;34;20089;-81
2023/07/13 11:58:49;;;;;;;5.93;3.22;;;;;;;;;;4110614;34;20121;-79
2023/07/13 12:01:21;;;;;;;12.32;3.30;;;;;;;;;;4117274;34;20407;-80
2023/07/13 12:03:49;;;;;;;6.30;2.85;;;;;;;;;;4118290;34;20067;-78
2023/07/13 12:06:26;;;;;;;13.38;3.42;;;;;;;;;;4123622;34;20057;-77
2023/07/13 12:08:55;;;;;;;7.25;6.05;;;;;;;;;;4099217;34;20137;-77
2023/07/13 12:11:21;;;;;;;4.25;3.22;;;;;;;;;;4113472;34;20063;-77
2023/07/13 12:13:48;;;;;;;5.45;3.17;;;;;;;;;;4124896;34;20369;-79
2023/07/13 12:16:24;;;;;;;4.50;2.90;;;;;;;;;;4137040;34;20074;-82
2023/07/13 12:18:52;;;;;;;12.57;4.35;;;;;;;;;;4124804;34;20088;-78
2023/07/13 12:21:20;;;;;;;8.77;4.50;;;;;;;;;;4144968;34;20045;-78
2023/07/13 12:23:49;;;;;;;9.43;4.22;;;;;;;;;;4111230;34;20060;-77
2023/07/13 12:26:17;;;;;;;8.82;3.33;;;;;;;;;;4141670;34;20065;-78
2023/07/13 12:28:46;;;;;;;7.68;3.10;;;;;;;;;;4162001;34;20052;-77
2023/07/13 12:31:38;;;;;;;4.15;2.40;;;;;;;;;;4167095;34;20102;-77
2023/07/13 12:34:15;;;;;;;3.92;2.72;;;;;;;;;;4165251;34;20060;-79
2023/07/13 12:37:01;;;;;;;7.65;2.17;;;;;;;;;;4150165;34;20104;-77
2023/07/13 12:39:35;;;;;;;5.50;2.70;;;;;;;;;;4148808;34;20045;-80
2023/07/13 12:42:19;;;;;;;7.28;2.50;;;;;;;;;;4143192;34;20049;-76
2023/07/13 12:44:46;;;;;;;4.07;1.95;;;;;;;;;;4137769;34;20129;-76
2023/07/13 12:47:13;;;;;;;2.90;2.50;;;;;;;;;;4146482;34;20045;-82
2023/07/13 12:49:47;;;;;;;9.02;2.78;;;;;;;;;;4143659;34;20122;-80
2023/07/13 12:52:19;;;;;;;6.70;2.33;;;;;;;;;;4148341;34;20452;-79
2023/07/13 12:54:57;;;;;;;4.47;2.30;;;;;;;;;;4122813;34;20036;-78
2023/07/13 12:57:23;;;;;;;5.68;1.87;;;;;;;;;;4124863;34;20952;-77
2023/07/13 12:59:56;;;;;;;4.65;2.97;;;;;;;;;;4124285;34;20241;-78
2023/07/13 13:02:29;;;;;;;4.87;2.67;;;;;;;;;;4122650;34;20092;-79
2023/07/13 13:04:56;;;;;;;;;;;;;;;;;;4137063;34;20064;-82
2023/07/13 13:07:27;;;;;;;7.78;2.92;;;;;;;;;;4163093;34;19951;-82
2023/07/13 13:09:54;;;;;;;3.22;2.50;;;;;;;;;;4167144;34;20107;-82
2023/07/13 13:12:25;;;;;;;4.78;3.20;;;;;;;;;;4179259;34;20642;-81
2023/07/13 13:14:56;;;;;;;4.95;3.15;;;;;;;;;;4167569;34;20068;-81
2023/07/13 13:17:27;;;;;;;4.20;3.03;;;;;;;;;;4180005;34;20801;-82
2023/07/13 13:19:59;;;;;;;4.05;2.60;;;;;;;;;;4187246;34;20535;-81
2023/07/13 13:22:27;;;;;;;7.82;2.62;;;;;;;;;;4167781;34;20060;-81
2023/07/13 13:24:55;;;;;;;6.68;3.03;;;;;;;;;;4140341;34;20458;-81
2023/07/13 13:27:23;;;;;;;4.12;2.67;;;;;;;;;;4138530;34;21158;-80
2023/07/13 13:29:51;;;;;;;7.00;3.70;;;;;;;;;;4139457;34;20588;-81
2023/07/13 13:32:18;;;;;;;13.50;2.47;;;;;;;;;;4165859;34;20492;-81
2023/07/13 13:34:45;;;;;;;11.77;2.58;;;;;;;;;;4173692;34;20771;-83
2023/07/13 13:37:20;;;;;;;5.70;3.08;;;;;;;;;;4157166;34;20078;-80
2023/07/13 13:39:48;;;;;;;7.18;2.37;;;;;;;;;;4166811;34;20119;-81
2023/07/13 13:42:24;;;;;;;6.25;3.50;;;;;;;;;;4166439;34;20082;-83
2023/07/13 13:44:50;;;;;;;6.85;2.75;;;;;;;;;;4188779;34;20090;-82
2023/07/13 13:47:38;;;;;;;6.12;2.92;;;;;;;;;;4191856;34;20039;-80
2023/07/13 13:50:22;;;;;;;2.80;2.60;;;;;;;;;;4165170;34;20087;-83
2023/07/13 13:52:48;;;;;;;6.25;2.85;;;;;;;;;;4185287;34;20077;-80
2023/07/13 13:55:19;;;;;;;3.20;2.90;;;;;;;;;;4222217;34;20055;-83
2023/07/13 13:57:45;;;;;;;2.87;2.67;;;;;;;;;;4219192;34;20056;-83
2023/07/13 14:00:16;;;;;;;2.62;2.42;;;;;;;;;;4221640;34;20058;-84
2023/07/13 14:02:47;;;;;;;7.60;3.40;;;;;;;;;;4194798;34;20069;-83
2023/07/13 14:05:14;;;;;;;;;;;;;;;;;;4197542;34;20073;-83
2023/07/13 14:07:40;;;;;;;5.78;2.95;;;;;;;;;;4194794;34;19947;-84
2023/07/13 14:10:18;;;;;;;5.78;2.72;;;;;;;;;;4192502;34;20490;-77
2023/07/13 14:12:44;;;;;;;3.47;2.60;;;;;;;;;;4172337;34;20057;-83
2023/07/13 14:15:31;;;;;;;5.70;2.50;;;;;;;;;;4168743;34;20081;-81
2023/07/13 14:17:58;;;;;;;5.12;2.83;;;;;;;;;;4167534;34;20052;-80
2023/07/13 14:20:25;;;;;;;2.45;2.33;;;;;;;;;;4189965;34;20051;-85
2023/07/13 14:22:52;;;;;;;3.53;2.47;;;;;;;;;;4190215;34;20065;-85
2023/07/13 14:25:19;;;;;;;4.82;2.30;;;;;;;;;;4188785;34;20077;-85
2023/07/13 14:27:48;;;;;;;6.20;2.60;;;;;;;;;;4200183;34;20027;-84
2023/07/13 14:30:18;;;;;;;4.25;2.50;;;;;;;;;;4221250;34;20296;-84
2023/07/13 14:32:51;;;;;;;2.42;2.20;;;;;;;;;;4224328;33;20038;-84
2023/07/13 14:35:20;;;;;;;3.58;2.47;;;;;;;;;;4194319;34;20040;-83
2023/07/13 14:37:46;;;;;;;5.25;2.78;;;;;;;;;;4166326;34;20074;-82
2023/07/13 14:40:13;;;;;;;8.88;3.47;;;;;;;;;;4168415;34;20096;-82
2023/07/13 14:42:41;;;;;;;4.90;2.97;;;;;;;;;;4170368;34;20081;-83
2023/07/13 14:45:18;;;;;;;3.40;2.33;;;;;;;;;;4142583;34;20789;-83
2023/07/13 14:47:51;;;;;;;3.40;2.30;;;;;;;;;;4141258;34;20037;-83
2023/07/13 14:50:19;;;;;;;3.17;2.03;;;;;;;;;;4123414;34;20304;-83
2023/07/13 14:52:46;;;;;;;5.20;2.40;;;;;;;;;;4088678;35;20051;-83
2023/07/13 14:55:14;;;;;;;10.60;2.35;;;;;;;;;;4085569;35;20084;-82
2023/07/13 14:57:40;;;;;;;2.30;2.15;;;;;;;;;;4084904;35;20050;-84
2023/07/13 15:00:18;;;;;;;4.97;2.50;;;;;;;;;;4088956;35;20077;-81
2023/07/13 15:02:47;;;;;;;3.20;2.20;;;;;;;;;;4077944;35;20062;-82
2023/07/13 15:05:19;;;;;;;2.60;2.40;;;;;;;;;;4106057;34;20466;-82
2023/07/13 15:07:45;;;;;;;4.65;2.28;;;;;;;;;;4085400;35;20449;-81
2023/07/13 15:10:16;;;;;;;2.92;2.17;;;;;;;;;;4094630;35;20054;-82
2023/07/13 15:12:46;;;;;;;8.35;2.20;;;;;;;;;;4094912;34;20080;-83
2023/07/13 15:15:13;;;;;;;2.72;2.28;;;;;;;;;;4129381;34;20079;-83
2023/07/13 15:17:43;;;;;;;7.62;2.55;;;;;;;;;;4140347;34;20048;-82
2023/07/13 15:20:21;;;;;;;;;;;;;;;;;;4141897;34;20444;-81
2023/07/13 15:22:49;;;;;;;6.70;1.90;;;;;;;;;;4128519;34;20086;-82
2023/07/13 15:25:18;;;;;;;2.42;2.12;;;;;;;;;;4159291;34;20866;-82
2023/07/13 15:27:44;;;;;;;2.67;2.37;;;;;;;;;;4196142;34;20788;-81
2023/07/13 15:30:11;;;;;;;3.10;2.60;;;;;;;;;;4196990;34;20054;-81
2023/07/13 15:32:39;;;;;;;3.70;3.12;;;;;;;;;;4201073;34;20059;-81
2023/07/13 15:35:12;;;;;;;8.43;2.47;;;;;;;;;;4197935;34;20552;-82
2023/07/13 15:37:39;;;;;;;11.40;2.35;;;;;;;;;;4185001;34;20052;-81
2023/07/13 15:40:06;;;;;;;3.03;2.20;;;;;;;;;;4185670;34;20090;-82
2023/07/13 15:42:32;;;;;;;6.40;2.65;;;;;;;;;;4174359;34;20035;-83
2023/07/13 15:45:02;;;;;;;2.80;2.60;;;;;;;;;;4178154;34;20059;-80
2023/07/13 15:47:28;;;;;;;3.08;2.83;;;;;;;;;;4193970;34;20044;-81
2023/07/13 15:50:00;;;;;;;4.47;2.22;;;;;;;;;;4168083;34;20438;-80
2023/07/13 15:52:28;;;;;;;6.18;2.92;;;;;;;;;;4170707;34;20824;-81
2023/07/13 15:54:55;;;;;;;2.70;2.47;;;;;;;;;;4157458;34;20527;-83
2023/07/13 15:57:21;;;;;;;3.08;2.75;;;;;;;;;;4164856;34;20036;-85
2023/07/13 15:59:48;;;;;;;5.97;2.72;;;;;;;;;;4176961;34;20426;-83
2023/07/13 16:02:18;;;;;;;2.35;2.25;;;;;;;;;;4182005;34;20060;-83
2023/07/13 16:04:48;;;;;;;5.72;3.00;;;;;;;;;;4184415;34;20081;-81
2023/07/13 16:07:19;;;;;;;5.55;3.53;;;;;;;;;;4172924;34;20028;-79
2023/07/13 16:09:51;;;;;;;3.92;2.53;;;;;;;;;;4182847;34;20143;-82
2023/07/13 16:12:17;;;;;;;4.60;2.92;;;;;;;;;;4204453;34;20027;-80
2023/07/13 16:14:44;;;;;;;3.47;2.75;;;;;;;;;;4215183;34;20625;-83
2023/07/13 16:17:12;;;;;;;2.60;2.40;;;;;;;;;;4225483;34;20367;-84
2023/07/13 16:19:39;;;;;;;2.53;2.25;;;;;;;;;;4212253;34;20046;-83
2023/07/13 16:22:05;;;;;;;2.60;2.30;;;;;;;;;;4239820;33;20131;-85
2023/07/13 16:24:32;;;;;;;3.22;2.42;;;;;;;;;;4208379;34;20085;-83
2023/07/13 16:27:02;;;;;;;2.70;2.50;;;;;;;;;;4208176;34;20065;-82
2023/07/13 16:29:29;;;;;;;2.55;1.95;;;;;;;;;;4194904;34;20051;-79
2023/07/13 16:32:04;;;;;;;4.00;2.90;;;;;;;;;;4185234;34;20063;-85
2023/07/13 16:34:32;;;;;;;7.12;2.72;;;;;;;;;;4171681;34;20048;-82
2023/07/13 16:37:00;;;;;;;5.60;2.42;;;;;;;;;;4164738;34;20063;-82
2023/07/13 16:39:27;;;;;;;7.00;2.80;;;;;;;;;;4156729;34;20066;-84
2023/07/13 16:41:55;;;;;;;6.10;3.08;;;;;;;;;;4157016;34;20765;-82
2023/07/13 16:44:23;;;;;;;10.75;3.22;;;;;;;;;;4155112;34;20057;-81
2023/07/13 16:46:55;;;;;;;3.25;2.95;;;;;;;;;;4144781;34;20060;-83
2023/07/13 16:49:24;;;;;;;10.55;3.83;;;;;;;;;;4128876;34;20851;-83
2023/07/13 16:51:51;;;;;;;3.05;2.72;;;;;;;;;;4132667;34;20063;-82
2023/07/13 16:54:18;;;;;;;6.37;2.80;;;;;;;;;;4142936;34;20172;-81
2023/07/13 16:56:47;;;;;;;2.83;2.60;;;;;;;;;;4166404;34;20382;-82